sensor_id;sensor_type;location;lat;lon;timestamp;temperature;humidity
61641;HTU21D;62201;49.966;8.342;2023-08-06T00:01:12;16.56;118.99
61641;HTU21D;62201;49.966;8.342;2023-08-06T00:03:37;16.59;118.99
61641;HTU21D;62201;49.966;8.342;2023-08-06T00:06:05;16.63;118.99
61641;HTU21D;62201;49.966;8.342;2023-08-06T00:08:30;16.66;118.99
61641;HTU21D;62201;49.966;8.342;2023-08-06T00:10:55;16.70;118.99
61641;HTU21D;62201;49.966;8.342;2023-08-06T00:13:21;16.72;118.99
61641;HTU21D;62201;49.966;8.342;2023-08-06T00:15:46;16.73;118.99
61641;HTU21D;62201;49.966;8.342;2023-08-06T00:18:12;16.78;118.99
61641;HTU21D;62201;49.966;8.342;2023-08-06T00:20:40;16.78;118.99
61641;HTU21D;62201;49.966;8.342;2023-08-06T00:23:07;16.80;118.99
61641;HTU21D;62201;49.966;8.342;2023-08-06T00:25:32;16.84;118.99
61641;HTU21D;62201;49.966;8.342;2023-08-06T00:27:57;16.84;118.99
61641;HTU21D;62201;49.966;8.342;2023-08-06T00:30:23;16.85;118.99
61641;HTU21D;62201;49.966;8.342;2023-08-06T00:32:48;16.85;118.99
61641;HTU21D;62201;49.966;8.342;2023-08-06T00:35:14;16.86;118.99
61641;HTU21D;62201;49.966;8.342;2023-08-06T00:37:39;16.87;118.99
61641;HTU21D;62201;49.966;8.342;2023-08-06T00:40:06;16.88;118.99
61641;HTU21D;62201;49.966;8.342;2023-08-06T00:42:32;16.89;118.99
61641;HTU21D;62201;49.966;8.342;2023-08-06T00:44:57;16.87;118.99
61641;HTU21D;62201;49.966;8.342;2023-08-06T00:47:23;16.87;118.99
61641;HTU21D;62201;49.966;8.342;2023-08-06T00:49:48;16.86;118.99
61641;HTU21D;62201;49.966;8.342;2023-08-06T00:52:14;16.85;118.99
61641;HTU21D;62201;49.966;8.342;2023-08-06T00:54:39;16.86;118.99
61641;HTU21D;62201;49.966;8.342;2023-08-06T00:57:07;16.82;118.99
61641;HTU21D;62201;49.966;8.342;2023-08-06T00:59:33;16.80;118.99
61641;HTU21D;62201;49.966;8.342;2023-08-06T01:01:59;16.80;118.99
61641;HTU21D;62201;49.966;8.342;2023-08-06T01:04:24;16.77;118.99
61641;HTU21D;62201;49.966;8.342;2023-08-06T01:12:48;16.72;118.99
61641;HTU21D;62201;49.966;8.342;2023-08-06T01:15:22;16.75;118.99
61641;HTU21D;62201;49.966;8.342;2023-08-06T01:17:49;16.75;118.99
61641;HTU21D;62201;49.966;8.342;2023-08-06T01:20:15;16.75;118.99
61641;HTU21D;62201;49.966;8.342;2023-08-06T01:22:40;16.76;118.99
61641;HTU21D;62201;49.966;8.342;2023-08-06T01:25:07;16.77;118.99
61641;HTU21D;62201;49.966;8.342;2023-08-06T01:30:29;16.65;118.99
61641;HTU21D;62201;49.966;8.342;2023-08-06T01:32:58;16.62;118.99
61641;HTU21D;62201;49.966;8.342;2023-08-06T01:35:26;16.60;118.99
61641;HTU21D;62201;49.966;8.342;2023-08-06T01:37:52;16.60;118.99
61641;HTU21D;62201;49.966;8.342;2023-08-06T01:40:18;16.61;118.99
61641;HTU21D;62201;49.966;8.342;2023-08-06T01:42:43;16.61;118.99
61641;HTU21D;62201;49.966;8.342;2023-08-06T01:45:09;16.62;118.99
61641;HTU21D;62201;49.966;8.342;2023-08-06T01:47:35;16.56;118.99
61641;HTU21D;62201;49.966;8.342;2023-08-06T01:50:01;16.47;118.99
61641;HTU21D;62201;49.966;8.342;2023-08-06T01:52:27;16.49;118.99
61641;HTU21D;62201;49.966;8.342;2023-08-06T01:54:53;16.50;118.99
61641;HTU21D;62201;49.966;8.342;2023-08-06T01:57:18;16.58;118.99
61641;HTU21D;62201;49.966;8.342;2023-08-06T01:59:43;16.54;118.99
61641;HTU21D;62201;49.966;8.342;2023-08-06T02:02:09;16.50;118.99
61641;HTU21D;62201;49.966;8.342;2023-08-06T02:04:34;16.45;118.99
61641;HTU21D;62201;49.966;8.342;2023-08-06T02:07:00;16.42;118.99
61641;HTU21D;62201;49.966;8.342;2023-08-06T02:09:25;16.42;118.99
61641;HTU21D;62201;49.966;8.342;2023-08-06T02:11:50;16.42;118.99
61641;HTU21D;62201;49.966;8.342;2023-08-06T02:14:16;16.42;118.99
61641;HTU21D;62201;49.966;8.342;2023-08-06T02:16:41;16.40;118.99
61641;HTU21D;62201;49.966;8.342;2023-08-06T02:19:06;16.40;118.99
61641;HTU21D;62201;49.966;8.342;2023-08-06T02:21:32;16.39;118.99
61641;HTU21D;62201;49.966;8.342;2023-08-06T02:23:57;16.37;118.99
61641;HTU21D;62201;49.966;8.342;2023-08-06T02:26:23;16.37;118.99
61641;HTU21D;62201;49.966;8.342;2023-08-06T02:28:48;16.35;118.99
61641;HTU21D;62201;49.966;8.342;2023-08-06T02:31:13;16.31;118.99
61641;HTU21D;62201;49.966;8.342;2023-08-06T02:33:39;16.27;118.99
61641;HTU21D;62201;49.966;8.342;2023-08-06T02:36:04;16.25;118.99
61641;HTU21D;62201;49.966;8.342;2023-08-06T02:38:31;16.25;118.99
61641;HTU21D;62201;49.966;8.342;2023-08-06T02:40:56;16.26;118.99
61641;HTU21D;62201;49.966;8.342;2023-08-06T02:43:22;16.26;118.99
61641;HTU21D;62201;49.966;8.342;2023-08-06T02:45:47;16.21;118.99
61641;HTU21D;62201;49.966;8.342;2023-08-06T02:48:12;16.18;118.99
61641;HTU21D;62201;49.966;8.342;2023-08-06T02:50:41;16.20;118.99
61641;HTU21D;62201;49.966;8.342;2023-08-06T02:53:07;16.20;118.99
61641;HTU21D;62201;49.966;8.342;2023-08-06T02:55:33;16.22;118.99
61641;HTU21D;62201;49.966;8.342;2023-08-06T02:57:59;16.22;118.99
61641;HTU21D;62201;49.966;8.342;2023-08-06T03:00:25;16.20;118.99
61641;HTU21D;62201;49.966;8.342;2023-08-06T03:02:50;16.19;118.99
61641;HTU21D;62201;49.966;8.342;2023-08-06T03:05:16;16.19;118.99
61641;HTU21D;62201;49.966;8.342;2023-08-06T03:07:41;16.20;118.99
61641;HTU21D;62201;49.966;8.342;2023-08-06T03:10:06;16.24;118.99
61641;HTU21D;62201;49.966;8.342;2023-08-06T03:12:32;16.26;118.99
61641;HTU21D;62201;49.966;8.342;2023-08-06T03:14:57;16.30;118.99
61641;HTU21D;62201;49.966;8.342;2023-08-06T03:17:23;16.31;118.99
61641;HTU21D;62201;49.966;8.342;2023-08-06T03:19:48;16.29;118.99
61641;HTU21D;62201;49.966;8.342;2023-08-06T03:22:13;16.27;118.99
61641;HTU21D;62201;49.966;8.342;2023-08-06T03:24:39;16.25;118.99
61641;HTU21D;62201;49.966;8.342;2023-08-06T03:27:04;16.21;118.99
61641;HTU21D;62201;49.966;8.342;2023-08-06T03:29:30;16.22;118.99
61641;HTU21D;62201;49.966;8.342;2023-08-06T03:31:55;16.24;118.99
61641;HTU21D;62201;49.966;8.342;2023-08-06T03:34:21;16.25;118.99
61641;HTU21D;62201;49.966;8.342;2023-08-06T03:36:46;16.26;118.99
61641;HTU21D;62201;49.966;8.342;2023-08-06T03:39:11;16.28;118.99
61641;HTU21D;62201;49.966;8.342;2023-08-06T03:41:37;16.29;118.99
61641;HTU21D;62201;49.966;8.342;2023-08-06T03:44:03;16.30;118.99
61641;HTU21D;62201;49.966;8.342;2023-08-06T03:46:29;16.34;118.99
61641;HTU21D;62201;49.966;8.342;2023-08-06T03:48:54;16.35;118.99
61641;HTU21D;62201;49.966;8.342;2023-08-06T03:51:20;16.39;118.99
61641;HTU21D;62201;49.966;8.342;2023-08-06T03:53:45;16.35;118.99
61641;HTU21D;62201;49.966;8.342;2023-08-06T03:56:11;16.29;118.99
61641;HTU21D;62201;49.966;8.342;2023-08-06T03:58:36;16.27;118.99
61641;HTU21D;62201;49.966;8.342;2023-08-06T04:01:02;16.24;118.99
61641;HTU21D;62201;49.966;8.342;2023-08-06T04:03:28;16.18;118.99
61641;HTU21D;62201;49.966;8.342;2023-08-06T04:05:54;16.15;118.99
61641;HTU21D;62201;49.966;8.342;2023-08-06T04:08:20;16.12;118.99
61641;HTU21D;62201;49.966;8.342;2023-08-06T04:10:45;16.10;118.99
61641;HTU21D;62201;49.966;8.342;2023-08-06T04:13:14;16.07;118.99
61641;HTU21D;62201;49.966;8.342;2023-08-06T04:15:39;16.07;118.99
61641;HTU21D;62201;49.966;8.342;2023-08-06T04:18:04;16.07;118.99
61641;HTU21D;62201;49.966;8.342;2023-08-06T04:20:30;16.11;118.99
61641;HTU21D;62201;49.966;8.342;2023-08-06T04:22:55;16.06;118.99
61641;HTU21D;62201;49.966;8.342;2023-08-06T04:25:20;15.97;118.99
61641;HTU21D;62201;49.966;8.342;2023-08-06T04:27:47;15.89;118.99
61641;HTU21D;62201;49.966;8.342;2023-08-06T04:30:12;15.84;118.99
61641;HTU21D;62201;49.966;8.342;2023-08-06T04:32:39;15.78;118.99
61641;HTU21D;62201;49.966;8.342;2023-08-06T04:35:04;15.74;118.99
61641;HTU21D;62201;49.966;8.342;2023-08-06T04:37:30;15.69;118.99
61641;HTU21D;62201;49.966;8.342;2023-08-06T04:39:55;15.67;118.99
61641;HTU21D;62201;49.966;8.342;2023-08-06T04:42:21;15.61;118.99
61641;HTU21D;62201;49.966;8.342;2023-08-06T04:44:46;15.60;118.99
61641;HTU21D;62201;49.966;8.342;2023-08-06T04:47:11;15.56;118.99
61641;HTU21D;62201;49.966;8.342;2023-08-06T04:49:37;15.46;118.99
61641;HTU21D;62201;49.966;8.342;2023-08-06T04:52:02;15.39;118.99
61641;HTU21D;62201;49.966;8.342;2023-08-06T04:54:28;15.31;118.99
61641;HTU21D;62201;49.966;8.342;2023-08-06T04:56:53;15.26;118.99
61641;HTU21D;62201;49.966;8.342;2023-08-06T04:59:18;15.24;118.99
61641;HTU21D;62201;49.966;8.342;2023-08-06T05:01:44;15.26;118.99
61641;HTU21D;62201;49.966;8.342;2023-08-06T05:04:09;15.17;118.99
61641;HTU21D;62201;49.966;8.342;2023-08-06T05:06:34;15.19;118.99
61641;HTU21D;62201;49.966;8.342;2023-08-06T05:09:00;15.22;118.99
61641;HTU21D;62201;49.966;8.342;2023-08-06T05:11:25;15.14;118.99
61641;HTU21D;62201;49.966;8.342;2023-08-06T05:13:51;15.12;118.99
61641;HTU21D;62201;49.966;8.342;2023-08-06T05:16:16;15.12;118.99
61641;HTU21D;62201;49.966;8.342;2023-08-06T05:18:41;15.16;118.99
61641;HTU21D;62201;49.966;8.342;2023-08-06T05:21:07;15.22;118.99
61641;HTU21D;62201;49.966;8.342;2023-08-06T05:23:32;15.30;118.99
61641;HTU21D;62201;49.966;8.342;2023-08-06T05:25:58;15.42;118.99
61641;HTU21D;62201;49.966;8.342;2023-08-06T05:28:23;15.45;118.99
61641;HTU21D;62201;49.966;8.342;2023-08-06T05:30:48;15.47;118.99
61641;HTU21D;62201;49.966;8.342;2023-08-06T05:33:14;15.56;118.99
61641;HTU21D;62201;49.966;8.342;2023-08-06T05:35:41;15.59;118.99
61641;HTU21D;62201;49.966;8.342;2023-08-06T05:38:07;15.60;118.99
61641;HTU21D;62201;49.966;8.342;2023-08-06T05:40:35;15.65;118.99
61641;HTU21D;62201;49.966;8.342;2023-08-06T05:43:00;15.63;118.99
61641;HTU21D;62201;49.966;8.342;2023-08-06T05:45:26;15.63;118.99
61641;HTU21D;62201;49.966;8.342;2023-08-06T05:47:51;15.67;118.99
61641;HTU21D;62201;49.966;8.342;2023-08-06T05:50:19;15.67;118.99
61641;HTU21D;62201;49.966;8.342;2023-08-06T05:52:44;15.61;118.99
61641;HTU21D;62201;49.966;8.342;2023-08-06T05:55:09;15.56;118.99
61641;HTU21D;62201;49.966;8.342;2023-08-06T05:57:35;15.51;118.99
61641;HTU21D;62201;49.966;8.342;2023-08-06T06:00:01;15.45;118.99
61641;HTU21D;62201;49.966;8.342;2023-08-06T06:02:26;15.38;118.99
61641;HTU21D;62201;49.966;8.342;2023-08-06T06:04:52;15.34;118.99
61641;HTU21D;62201;49.966;8.342;2023-08-06T06:07:17;15.30;118.99
61641;HTU21D;62201;49.966;8.342;2023-08-06T06:09:42;15.31;118.99
61641;HTU21D;62201;49.966;8.342;2023-08-06T06:12:08;15.26;118.99
61641;HTU21D;62201;49.966;8.342;2023-08-06T06:14:33;15.18;118.99
61641;HTU21D;62201;49.966;8.342;2023-08-06T06:16:59;15.18;118.99
61641;HTU21D;62201;49.966;8.342;2023-08-06T06:19:25;15.13;118.99
61641;HTU21D;62201;49.966;8.342;2023-08-06T06:21:51;15.13;118.99
61641;HTU21D;62201;49.966;8.342;2023-08-06T06:24:16;15.07;118.99
61641;HTU21D;62201;49.966;8.342;2023-08-06T06:26:41;15.01;118.99
61641;HTU21D;62201;49.966;8.342;2023-08-06T06:29:07;14.98;118.99
61641;HTU21D;62201;49.966;8.342;2023-08-06T06:31:32;14.96;118.99
61641;HTU21D;62201;49.966;8.342;2023-08-06T06:33:57;14.95;118.99
61641;HTU21D;62201;49.966;8.342;2023-08-06T06:36:23;14.94;118.99
61641;HTU21D;62201;49.966;8.342;2023-08-06T06:38:49;14.96;118.99
61641;HTU21D;62201;49.966;8.342;2023-08-06T06:41:14;14.96;118.99
61641;HTU21D;62201;49.966;8.342;2023-08-06T06:43:40;14.95;118.99
61641;HTU21D;62201;49.966;8.342;2023-08-06T06:46:05;14.98;118.99
61641;HTU21D;62201;49.966;8.342;2023-08-06T06:48:32;14.96;118.99
61641;HTU21D;62201;49.966;8.342;2023-08-06T06:50:58;14.98;118.99
61641;HTU21D;62201;49.966;8.342;2023-08-06T06:53:23;15.00;118.99
61641;HTU21D;62201;49.966;8.342;2023-08-06T06:56:10;15.03;118.99
61641;HTU21D;62201;49.966;8.342;2023-08-06T06:58:36;15.09;118.99
61641;HTU21D;62201;49.966;8.342;2023-08-06T07:01:02;15.14;118.99
61641;HTU21D;62201;49.966;8.342;2023-08-06T07:03:27;15.18;118.99
61641;HTU21D;62201;49.966;8.342;2023-08-06T07:05:57;15.17;118.99
61641;HTU21D;62201;49.966;8.342;2023-08-06T07:08:22;15.18;118.99
61641;HTU21D;62201;49.966;8.342;2023-08-06T07:10:48;15.23;118.99
61641;HTU21D;62201;49.966;8.342;2023-08-06T07:13:13;15.29;118.99
61641;HTU21D;62201;49.966;8.342;2023-08-06T07:15:38;15.28;118.99
61641;HTU21D;62201;49.966;8.342;2023-08-06T07:18:04;15.33;118.99
61641;HTU21D;62201;49.966;8.342;2023-08-06T07:20:29;15.37;118.99
61641;HTU21D;62201;49.966;8.342;2023-08-06T07:22:58;15.44;118.99
61641;HTU21D;62201;49.966;8.342;2023-08-06T07:25:23;15.49;118.99
61641;HTU21D;62201;49.966;8.342;2023-08-06T07:27:49;15.55;118.99
61641;HTU21D;62201;49.966;8.342;2023-08-06T07:30:14;15.65;118.99
61641;HTU21D;62201;49.966;8.342;2023-08-06T07:32:39;15.75;118.99
61641;HTU21D;62201;49.966;8.342;2023-08-06T07:35:05;15.86;118.99
61641;HTU21D;62201;49.966;8.342;2023-08-06T07:37:33;15.84;118.99
61641;HTU21D;62201;49.966;8.342;2023-08-06T07:39:58;16.05;118.99
61641;HTU21D;62201;49.966;8.342;2023-08-06T07:42:24;16.22;118.99
61641;HTU21D;62201;49.966;8.342;2023-08-06T07:44:51;16.42;118.99
61641;HTU21D;62201;49.966;8.342;2023-08-06T07:47:18;16.75;118.99
61641;HTU21D;62201;49.966;8.342;2023-08-06T07:49:43;16.88;118.99
61641;HTU21D;62201;49.966;8.342;2023-08-06T07:52:08;17.05;118.99
61641;HTU21D;62201;49.966;8.342;2023-08-06T07:54:34;17.21;118.99
61641;HTU21D;62201;49.966;8.342;2023-08-06T07:56:59;17.33;118.99
61641;HTU21D;62201;49.966;8.342;2023-08-06T07:59:24;17.44;118.99
61641;HTU21D;62201;49.966;8.342;2023-08-06T08:01:50;17.83;118.99
61641;HTU21D;62201;49.966;8.342;2023-08-06T08:04:15;18.25;118.99
61641;HTU21D;62201;49.966;8.342;2023-08-06T08:06:41;18.14;118.99
61641;HTU21D;62201;49.966;8.342;2023-08-06T08:09:07;18.21;118.99
61641;HTU21D;62201;49.966;8.342;2023-08-06T08:11:32;18.08;118.99
61641;HTU21D;62201;49.966;8.342;2023-08-06T08:13:57;18.04;118.99
61641;HTU21D;62201;49.966;8.342;2023-08-06T08:16:23;18.15;118.99
61641;HTU21D;62201;49.966;8.342;2023-08-06T08:18:48;18.20;118.99
61641;HTU21D;62201;49.966;8.342;2023-08-06T08:21:13;18.38;118.99
61641;HTU21D;62201;49.966;8.342;2023-08-06T08:23:39;18.62;118.99
61641;HTU21D;62201;49.966;8.342;2023-08-06T08:26:04;18.70;118.99
61641;HTU21D;62201;49.966;8.342;2023-08-06T08:28:30;18.85;118.99
61641;HTU21D;62201;49.966;8.342;2023-08-06T08:30:55;19.17;118.99
61641;HTU21D;62201;49.966;8.342;2023-08-06T08:33:21;18.99;117.80
61641;HTU21D;62201;49.966;8.342;2023-08-06T08:35:47;18.97;118.99
61641;HTU21D;62201;49.966;8.342;2023-08-06T08:38:12;18.99;115.90
61641;HTU21D;62201;49.966;8.342;2023-08-06T08:40:44;18.99;116.76
61641;HTU21D;62201;49.966;8.342;2023-08-06T08:43:11;18.89;114.99
61641;HTU21D;62201;49.966;8.342;2023-08-06T08:45:39;18.97;117.66
61641;HTU21D;62201;49.966;8.342;2023-08-06T08:48:05;18.92;113.93
61641;HTU21D;62201;49.966;8.342;2023-08-06T08:50:31;18.99;115.95
61641;HTU21D;62201;49.966;8.342;2023-08-06T08:52:57;19.06;111.10
61641;HTU21D;62201;49.966;8.342;2023-08-06T08:55:22;18.98;110.46
61641;HTU21D;62201;49.966;8.342;2023-08-06T08:57:48;18.98;112.42
61641;HTU21D;62201;49.966;8.342;2023-08-06T09:00:13;19.02;114.06
61641;HTU21D;62201;49.966;8.342;2023-08-06T09:02:40;18.92;111.10
61641;HTU21D;62201;49.966;8.342;2023-08-06T09:05:07;18.64;112.26
61641;HTU21D;62201;49.966;8.342;2023-08-06T09:07:41;18.47;113.71
61641;HTU21D;62201;49.966;8.342;2023-08-06T09:10:10;18.69;112.87
61641;HTU21D;62201;49.966;8.342;2023-08-06T09:12:36;18.83;113.47
61641;HTU21D;62201;49.966;8.342;2023-08-06T09:15:01;18.74;113.06
61641;HTU21D;62201;49.966;8.342;2023-08-06T09:17:28;18.50;114.96
61641;HTU21D;62201;49.966;8.342;2023-08-06T09:19:54;18.22;118.30
61641;HTU21D;62201;49.966;8.342;2023-08-06T09:22:20;17.85;118.99
61641;HTU21D;62201;49.966;8.342;2023-08-06T09:24:45;17.43;118.99
61641;HTU21D;62201;49.966;8.342;2023-08-06T09:27:15;17.06;118.99
61641;HTU21D;62201;49.966;8.342;2023-08-06T09:29:44;16.94;118.99
61641;HTU21D;62201;49.966;8.342;2023-08-06T09:32:13;16.88;118.99
61641;HTU21D;62201;49.966;8.342;2023-08-06T09:34:41;16.95;118.99
61641;HTU21D;62201;49.966;8.342;2023-08-06T09:37:09;17.10;118.99
61641;HTU21D;62201;49.966;8.342;2023-08-06T09:39:34;17.54;118.99
61641;HTU21D;62201;49.966;8.342;2023-08-06T09:42:01;17.88;118.99
61641;HTU21D;62201;49.966;8.342;2023-08-06T09:44:28;17.97;118.99
61641;HTU21D;62201;49.966;8.342;2023-08-06T09:46:55;18.02;118.99
61641;HTU21D;62201;49.966;8.342;2023-08-06T09:49:24;18.02;118.99
61641;HTU21D;62201;49.966;8.342;2023-08-06T09:51:51;18.09;118.99
61641;HTU21D;62201;49.966;8.342;2023-08-06T09:54:17;18.28;118.99
61641;HTU21D;62201;49.966;8.342;2023-08-06T09:56:44;18.57;118.92
61641;HTU21D;62201;49.966;8.342;2023-08-06T09:59:09;19.69;112.48
61641;HTU21D;62201;49.966;8.342;2023-08-06T10:01:36;19.66;111.32
61641;HTU21D;62201;49.966;8.342;2023-08-06T10:04:06;19.84;107.87
61641;HTU21D;62201;49.966;8.342;2023-08-06T10:06:37;19.73;105.95
61641;HTU21D;62201;49.966;8.342;2023-08-06T10:09:06;19.37;105.30
61641;HTU21D;62201;49.966;8.342;2023-08-06T10:11:31;19.14;105.56
61641;HTU21D;62201;49.966;8.342;2023-08-06T10:14:02;19.21;108.32
61641;HTU21D;62201;49.966;8.342;2023-08-06T10:16:29;19.31;106.34
61641;HTU21D;62201;49.966;8.342;2023-08-06T10:18:55;19.55;106.76
61641;HTU21D;62201;49.966;8.342;2023-08-06T10:21:23;19.94;104.61
61641;HTU21D;62201;49.966;8.342;2023-08-06T10:23:54;20.44;94.17
61641;HTU21D;62201;49.966;8.342;2023-08-06T10:26:19;20.92;92.49
61641;HTU21D;62201;49.966;8.342;2023-08-06T10:28:45;21.77;87.95
61641;HTU21D;62201;49.966;8.342;2023-08-06T10:31:10;21.27;86.76
61641;HTU21D;62201;49.966;8.342;2023-08-06T10:33:46;21.48;83.63
61641;HTU21D;62201;49.966;8.342;2023-08-06T10:36:13;21.33;84.76
61641;HTU21D;62201;49.966;8.342;2023-08-06T10:38:49;21.87;83.68
61641;HTU21D;62201;49.966;8.342;2023-08-06T10:41:21;21.30;84.38
61641;HTU21D;62201;49.966;8.342;2023-08-06T10:43:48;21.09;88.25
61641;HTU21D;62201;49.966;8.342;2023-08-06T10:46:28;21.35;86.96
61641;HTU21D;62201;49.966;8.342;2023-08-06T10:48:54;21.28;89.50
61641;HTU21D;62201;49.966;8.342;2023-08-06T10:51:19;20.89;91.43
61641;HTU21D;62201;49.966;8.342;2023-08-06T10:53:46;20.25;94.59
61641;HTU21D;62201;49.966;8.342;2023-08-06T10:56:12;19.51;106.14
61641;HTU21D;62201;49.966;8.342;2023-08-06T10:58:39;18.66;117.62
61641;HTU21D;62201;49.966;8.342;2023-08-06T11:01:05;18.17;118.99
61641;HTU21D;62201;49.966;8.342;2023-08-06T11:03:31;18.13;118.99
61641;HTU21D;62201;49.966;8.342;2023-08-06T11:05:58;18.06;118.99
61641;HTU21D;62201;49.966;8.342;2023-08-06T11:08:28;18.05;117.73
61641;HTU21D;62201;49.966;8.342;2023-08-06T11:10:53;18.14;114.56
61641;HTU21D;62201;49.966;8.342;2023-08-06T11:13:20;18.06;113.51
61641;HTU21D;62201;49.966;8.342;2023-08-06T11:15:46;18.25;115.13
61641;HTU21D;62201;49.966;8.342;2023-08-06T11:18:11;18.10;115.91
61641;HTU21D;62201;49.966;8.342;2023-08-06T11:20:37;17.95;118.99
61641;HTU21D;62201;49.966;8.342;2023-08-06T11:23:03;17.76;116.26
61641;HTU21D;62201;49.966;8.342;2023-08-06T11:25:29;17.59;118.09
61641;HTU21D;62201;49.966;8.342;2023-08-06T11:27:55;17.48;118.99
61641;HTU21D;62201;49.966;8.342;2023-08-06T11:30:20;17.26;118.99
61641;HTU21D;62201;49.966;8.342;2023-08-06T11:32:47;17.16;118.99
61641;HTU21D;62201;49.966;8.342;2023-08-06T11:35:13;16.95;118.99
61641;HTU21D;62201;49.966;8.342;2023-08-06T11:37:42;16.69;118.99
61641;HTU21D;62201;49.966;8.342;2023-08-06T11:40:09;16.61;118.99
61641;HTU21D;62201;49.966;8.342;2023-08-06T11:42:36;16.60;118.99
61641;HTU21D;62201;49.966;8.342;2023-08-06T11:45:03;16.60;118.99
61641;HTU21D;62201;49.966;8.342;2023-08-06T11:47:29;16.64;118.99
61641;HTU21D;62201;49.966;8.342;2023-08-06T11:49:54;16.67;118.99
61641;HTU21D;62201;49.966;8.342;2023-08-06T11:52:24;16.75;118.99
61641;HTU21D;62201;49.966;8.342;2023-08-06T11:55:07;16.79;118.99
61641;HTU21D;62201;49.966;8.342;2023-08-06T11:57:35;16.77;118.99
61641;HTU21D;62201;49.966;8.342;2023-08-06T12:00:12;16.78;118.99
61641;HTU21D;62201;49.966;8.342;2023-08-06T12:02:42;16.67;118.99
61641;HTU21D;62201;49.966;8.342;2023-08-06T12:05:15;16.59;118.99
61641;HTU21D;62201;49.966;8.342;2023-08-06T12:07:43;16.64;118.99
61641;HTU21D;62201;49.966;8.342;2023-08-06T12:10:09;16.70;118.99
61641;HTU21D;62201;49.966;8.342;2023-08-06T12:12:35;16.79;118.99
61641;HTU21D;62201;49.966;8.342;2023-08-06T12:15:00;16.78;118.99
61641;HTU21D;62201;49.966;8.342;2023-08-06T12:17:26;16.79;118.99
61641;HTU21D;62201;49.966;8.342;2023-08-06T12:19:52;16.81;118.99
61641;HTU21D;62201;49.966;8.342;2023-08-06T12:22:17;16.93;118.99
61641;HTU21D;62201;49.966;8.342;2023-08-06T12:24:44;17.13;118.99
61641;HTU21D;62201;49.966;8.342;2023-08-06T12:27:10;17.35;118.59
61641;HTU21D;62201;49.966;8.342;2023-08-06T12:29:37;17.47;115.86
61641;HTU21D;62201;49.966;8.342;2023-08-06T12:32:03;17.54;114.06
61641;HTU21D;62201;49.966;8.342;2023-08-06T12:34:29;17.64;112.19
61641;HTU21D;62201;49.966;8.342;2023-08-06T12:36:54;17.52;112.77
61641;HTU21D;62201;49.966;8.342;2023-08-06T12:39:19;17.43;113.83
61641;HTU21D;62201;49.966;8.342;2023-08-06T12:41:45;17.33;115.96
61641;HTU21D;62201;49.966;8.342;2023-08-06T12:44:11;17.20;117.39
61641;HTU21D;62201;49.966;8.342;2023-08-06T12:46:37;16.94;118.99
61641;HTU21D;62201;49.966;8.342;2023-08-06T12:49:02;16.76;118.99
61641;HTU21D;62201;49.966;8.342;2023-08-06T12:51:27;16.60;118.99
61641;HTU21D;62201;49.966;8.342;2023-08-06T12:53:53;16.47;118.99
61641;HTU21D;62201;49.966;8.342;2023-08-06T12:56:18;16.32;118.99
61641;HTU21D;62201;49.966;8.342;2023-08-06T12:58:44;16.15;118.99
61641;HTU21D;62201;49.966;8.342;2023-08-06T13:01:09;15.99;118.99
61641;HTU21D;62201;49.966;8.342;2023-08-06T13:03:35;15.93;118.99
61641;HTU21D;62201;49.966;8.342;2023-08-06T13:06:00;15.87;118.99
61641;HTU21D;62201;49.966;8.342;2023-08-06T13:08:25;15.80;118.99
61641;HTU21D;62201;49.966;8.342;2023-08-06T13:10:51;15.72;118.99
61641;HTU21D;62201;49.966;8.342;2023-08-06T13:13:16;15.71;118.99
61641;HTU21D;62201;49.966;8.342;2023-08-06T13:15:42;15.67;118.99
61641;HTU21D;62201;49.966;8.342;2023-08-06T13:18:07;15.62;118.99
61641;HTU21D;62201;49.966;8.342;2023-08-06T13:20:32;15.63;118.99
61641;HTU21D;62201;49.966;8.342;2023-08-06T13:22:58;15.70;118.99
61641;HTU21D;62201;49.966;8.342;2023-08-06T13:25:26;15.77;118.99
61641;HTU21D;62201;49.966;8.342;2023-08-06T13:27:53;15.89;118.99
61641;HTU21D;62201;49.966;8.342;2023-08-06T13:30:19;16.00;118.99
61641;HTU21D;62201;49.966;8.342;2023-08-06T13:32:45;16.16;118.99
61641;HTU21D;62201;49.966;8.342;2023-08-06T13:35:11;16.29;118.99
61641;HTU21D;62201;49.966;8.342;2023-08-06T13:37:36;16.46;118.99
61641;HTU21D;62201;49.966;8.342;2023-08-06T13:40:01;16.61;118.99
61641;HTU21D;62201;49.966;8.342;2023-08-06T13:42:27;16.82;117.50
61641;HTU21D;62201;49.966;8.342;2023-08-06T13:44:54;17.06;114.45
61641;HTU21D;62201;49.966;8.342;2023-08-06T13:47:24;17.32;111.05
61641;HTU21D;62201;49.966;8.342;2023-08-06T13:49:50;17.48;106.46
61641;HTU21D;62201;49.966;8.342;2023-08-06T13:52:15;17.64;103.84
61641;HTU21D;62201;49.966;8.342;2023-08-06T13:54:41;17.84;103.79
61641;HTU21D;62201;49.966;8.342;2023-08-06T13:57:06;17.91;101.68
61641;HTU21D;62201;49.966;8.342;2023-08-06T13:59:31;17.94;104.57
61641;HTU21D;62201;49.966;8.342;2023-08-06T14:01:57;17.91;103.97
61641;HTU21D;62201;49.966;8.342;2023-08-06T14:04:25;17.82;104.25
61641;HTU21D;62201;49.966;8.342;2023-08-06T14:06:50;17.69;104.24
61641;HTU21D;62201;49.966;8.342;2023-08-06T14:09:15;17.66;103.45
61641;HTU21D;62201;49.966;8.342;2023-08-06T14:11:44;17.64;105.21
61641;HTU21D;62201;49.966;8.342;2023-08-06T14:14:10;17.66;106.51
61641;HTU21D;62201;49.966;8.342;2023-08-06T14:16:36;17.60;103.44
61641;HTU21D;62201;49.966;8.342;2023-08-06T14:19:02;17.53;109.21
61641;HTU21D;62201;49.966;8.342;2023-08-06T14:21:27;17.49;107.53
61641;HTU21D;62201;49.966;8.342;2023-08-06T14:23:53;17.41;106.83
61641;HTU21D;62201;49.966;8.342;2023-08-06T14:26:18;17.41;108.66
61641;HTU21D;62201;49.966;8.342;2023-08-06T14:28:43;17.38;108.04
61641;HTU21D;62201;49.966;8.342;2023-08-06T14:31:09;17.47;107.92
61641;HTU21D;62201;49.966;8.342;2023-08-06T14:33:34;17.54;109.17
61641;HTU21D;62201;49.966;8.342;2023-08-06T14:36:00;17.80;106.77
61641;HTU21D;62201;49.966;8.342;2023-08-06T14:38:25;17.93;103.43
61641;HTU21D;62201;49.966;8.342;2023-08-06T14:40:50;17.83;103.86
61641;HTU21D;62201;49.966;8.342;2023-08-06T14:43:16;17.64;104.62
61641;HTU21D;62201;49.966;8.342;2023-08-06T14:45:41;17.53;106.24
61641;HTU21D;62201;49.966;8.342;2023-08-06T14:48:07;17.49;104.90
61641;HTU21D;62201;49.966;8.342;2023-08-06T14:50:32;17.43;105.95
61641;HTU21D;62201;49.966;8.342;2023-08-06T14:52:58;17.39;103.76
61641;HTU21D;62201;49.966;8.342;2023-08-06T14:55:27;17.37;102.44
61641;HTU21D;62201;49.966;8.342;2023-08-06T14:57:53;17.44;104.89
61641;HTU21D;62201;49.966;8.342;2023-08-06T15:00:20;17.50;104.41
61641;HTU21D;62201;49.966;8.342;2023-08-06T15:02:46;17.50;102.37
61641;HTU21D;62201;49.966;8.342;2023-08-06T15:05:11;17.43;100.16